Vremea acum in Câmpulung - Romania

Vrei sa afli care e starea vremii acum in Giurgiu - Romania? Dorim sa iti furnizam starea vremii pentru Giurgiu - Romania. Starea vremii Giurgiu - Romania pentru astazi.

Vremea acum in Câmpulung

Temperatura: 7.2 °C

Este: Senin
Se simte ca: 5.8 °C
Innorat: 3 %
Precipitatii: 0 %
Presiune atmosferica: 1016 hPa
Umiditate: 80%
Vizibilitate: 10 km
Vantul bate din NNE cu 7.6 km/h

Evolutia vremii in Câmpulung pe ore

Ora: 05:00
Senin
Temperatura: 7.2°C
Sansa de precipitatii: 0%
Ora Descriere Temp Se simte Precipitatii Umiditate Vant
00:00Senin7.8°6.7°0%86%N 7.2 KM/H
01:00Senin7.8°6.7°0%84%N 7.2 KM/H
02:00Senin7.7°6.4°0%83%N 7.6 KM/H
03:00Senin7.5°6.3°0%81%N 7.2 KM/H
04:00Senin7.4°6.2°0%80%N 7.2 KM/H
05:00Senin7.2°5.8°0%80%NNE 7.6 KM/H
06:00Senin7.1°5.7°0%78%NNE 7.6 KM/H
07:00Senin8.2°7.3°0%76%NNE 6.5 KM/H
08:00Senin13.8°13.8°0%68%ENE 1.8 KM/H
09:00Senin16.2°16.2°0%60%S 4.3 KM/H
10:00Senin17.6°17.6°0%57%S 6.5 KM/H
11:00Senin18.7°18.7°0%53%SSW 8.3 KM/H
12:00Patchy rain nearby19.7°19.7°84%50%SSW 9.7 KM/H
13:00Patchy rain nearby20.3°20.3°100%48%SW 11.2 KM/H
14:00Patchy rain nearby20.5°20.6°100%47%SW 12.6 KM/H
15:00Patchy rain nearby20.7°20.7°100%46%SW 13.3 KM/H
16:00Patchy rain nearby20.5°20.5°100%46%SW 13 KM/H
17:00Patchy rain nearby20.1°20.1°100%48%SW 10.8 KM/H
18:00Patchy rain nearby19.7°19.7°100%52%SW 9.7 KM/H
19:00Patchy rain nearby17.6°17.6°100%63%SSW 7.2 KM/H
20:00Senin12.9°13.3°0%75%S 4 KM/H
21:00Patchy rain nearby10.5°10.5°80%83%NE 2.2 KM/H
22:00Patchy rain nearby10°10.2°83%85%NNE 3.6 KM/H
23:00Senin9.5°9.7°0%87%NNE 3.6 KM/H




tutorials